Time;durP1;ratioP1;P1;durP2;ratioP2;P2;SDS_P1;SDS_P2;PMS_P1;PMS_P2;Temp;Humidity;BMP_temperature;BMP_pressure;BME280_temperature;BME280_humidity;BME280_pressure;Samples;Min_cycle;Max_cycle;Signal;HPM_P1;HPM_P2
2022/08/29 00:00:33;;;;;;;6.75;3.10;;;16.40;99.90;;;;;;5064905;28;20054;-79
2022/08/29 00:02:58;;;;;;;8.77;3.22;;;16.40;99.90;;;;;;5088012;28;20044;-79
2022/08/29 00:05:28;;;;;;;10.30;3.30;;;16.40;99.90;;;;;;5091106;28;20475;-79
2022/08/29 00:07:56;;;;;;;7.30;3.35;;;16.40;99.90;;;;;;5072450;28;20479;-80
2022/08/29 00:10:21;;;;;;;10.43;3.13;;;16.40;99.90;;;;;;5089220;28;20055;-79
2022/08/29 00:12:47;;;;;;;8.18;3.35;;;16.30;99.90;;;;;;5061609;28;20037;-79
2022/08/29 00:15:14;;;;;;;8.30;3.28;;;16.30;99.90;;;;;;5076526;28;20104;-79
2022/08/29 00:17:41;;;;;;;9.60;3.58;;;16.30;99.90;;;;;;5107432;27;20032;-80
2022/08/29 00:20:09;;;;;;;9.47;3.27;;;16.30;99.90;;;;;;5105390;28;20055;-79
2022/08/29 00:22:35;;;;;;;8.02;3.40;;;16.30;99.90;;;;;;5109724;28;20103;-79
2022/08/29 00:25:03;;;;;;;7.78;3.10;;;16.30;99.90;;;;;;5079829;28;20490;-79
2022/08/29 00:27:30;;;;;;;8.95;3.20;;;16.30;99.90;;;;;;5080636;28;20052;-79
2022/08/29 00:29:56;;;;;;;8.27;4.03;;;16.30;99.90;;;;;;5106187;28;20394;-79
2022/08/29 00:32:21;;;;;;;7.93;3.42;;;16.30;99.90;;;;;;5080227;28;20040;-79
2022/08/29 00:34:47;;;;;;;8.35;3.50;;;16.30;99.90;;;;;;5092140;28;20047;-80
2022/08/29 00:37:13;;;;;;;12.23;3.80;;;16.30;99.90;;;;;;5092354;28;20386;-79
2022/08/29 00:39:38;;;;;;;7.47;3.28;;;16.30;99.90;;;;;;5107225;28;20044;-79
2022/08/29 00:42:04;;;;;;;10.48;3.42;;;16.30;99.90;;;;;;5106544;28;20044;-79
2022/08/29 00:44:30;;;;;;;10.27;3.25;;;16.30;99.90;;;;;;5064882;28;20048;-79
2022/08/29 00:47:01;;;;;;;6.95;3.30;;;16.40;99.90;;;;;;5074686;28;20086;-79
2022/08/29 00:49:43;;;;;;;8.98;3.70;;;16.30;99.90;;;;;;5111039;28;20043;-79
2022/08/29 00:52:33;;;;;;;9.15;3.72;;;16.30;99.90;;;;;;5109920;27;20047;-79
2022/08/29 00:55:01;;;;;;;6.88;3.45;;;16.30;99.90;;;;;;5108982;28;20059;-79
2022/08/29 00:57:30;;;;;;;9.07;3.30;;;16.30;99.90;;;;;;5105635;27;20061;-79
2022/08/29 00:59:57;;;;;;;6.18;3.20;;;16.30;99.90;;;;;;5090022;28;20782;-79
2022/08/29 01:02:23;;;;;;;;;;;16.30;99.90;;;;;;5098278;28;20126;-79
2022/08/29 01:04:49;;;;;;;7.43;3.15;;;16.30;99.90;;;;;;5090036;28;20485;-79
2022/08/29 01:07:15;;;;;;;11.20;4.00;;;16.30;99.90;;;;;;5072922;28;20036;-79
2022/08/29 01:09:43;;;;;;;10.40;3.67;;;16.30;99.90;;;;;;5093203;28;20039;-79
2022/08/29 01:12:15;;;;;;;8.18;3.60;;;16.30;99.90;;;;;;5092404;28;20039;-79
2022/08/29 01:14:52;;;;;;;9.23;3.63;;;16.30;99.90;;;;;;5102504;27;20044;-79
2022/08/29 01:17:33;;;;;;;8.93;3.58;;;16.30;99.90;;;;;;5103022;28;20480;-80
2022/08/29 01:20:12;;;;;;;6.75;3.60;;;16.30;99.90;;;;;;5087642;28;20512;-80
2022/08/29 01:23:02;;;;;;;9.32;3.78;;;16.30;99.90;;;;;;5079226;28;20527;-80
2022/08/29 01:25:33;;;;;;;6.88;3.65;;;16.30;99.90;;;;;;5084585;28;20039;-80
2022/08/29 01:28:08;;;;;;;8.38;3.88;;;16.30;99.90;;;;;;5103609;28;20054;-80
2022/08/29 01:30:34;;;;;;;10.20;4.30;;;16.30;99.90;;;;;;5095487;28;20032;-79
2022/08/29 01:33:00;;;;;;;7.60;3.45;;;16.30;99.90;;;;;;5079299;28;20074;-80
2022/08/29 01:35:26;;;;;;;10.00;3.70;;;16.30;99.90;;;;;;5076073;28;20036;-80
2022/08/29 01:37:52;;;;;;;8.40;3.63;;;16.30;99.90;;;;;;5088635;28;20044;-79
2022/08/29 01:40:20;;;;;;;9.00;3.80;;;16.30;99.90;;;;;;5076885;28;20106;-80
2022/08/29 01:42:46;;;;;;;6.53;3.50;;;16.30;99.90;;;;;;5076667;28;20390;-79
2022/08/29 01:45:12;;;;;;;7.60;3.90;;;16.30;99.90;;;;;;5084742;28;21831;-79
2022/08/29 01:47:38;;;;;;;10.20;3.90;;;16.30;99.90;;;;;;5084965;28;20119;-80
2022/08/29 01:50:13;;;;;;;8.50;3.97;;;16.30;99.90;;;;;;5074127;28;20063;-79
2022/08/29 01:52:39;;;;;;;7.78;3.58;;;16.30;99.90;;;;;;5073085;28;20510;-80
2022/08/29 01:55:06;;;;;;;8.63;3.80;;;16.30;99.90;;;;;;5070448;28;20047;-80
2022/08/29 01:57:31;;;;;;;10.65;4.15;;;16.30;99.90;;;;;;5085213;28;20143;-80
2022/08/29 01:59:57;;;;;;;9.68;4.40;;;16.30;99.90;;;;;;5101941;28;20123;-80
2022/08/29 02:02:26;;;;;;;9.18;4.00;;;16.30;99.90;;;;;;5086835;28;20047;-80
2022/08/29 02:04:52;;;;;;;9.85;3.75;;;16.30;99.90;;;;;;5108036;28;20486;-80
2022/08/29 02:07:20;;;;;;;7.93;3.80;;;16.30;99.90;;;;;;5101660;28;20039;-79
2022/08/29 02:09:46;;;;;;;7.97;3.67;;;16.20;99.90;;;;;;5094894;28;20046;-80
2022/08/29 02:12:13;;;;;;;7.45;3.60;;;16.20;99.90;;;;;;5085708;28;20036;-80
2022/08/29 02:14:39;;;;;;;7.85;4.00;;;16.20;99.90;;;;;;5086471;28;20040;-80
2022/08/29 02:17:06;;;;;;;8.38;3.88;;;16.20;99.90;;;;;;5067309;28;20425;-79
2022/08/29 02:19:33;;;;;;;8.15;3.72;;;16.20;99.90;;;;;;5104295;28;20093;-80
2022/08/29 02:22:01;;;;;;;9.48;4.15;;;16.20;99.90;;;;;;5092702;28;20298;-80
2022/08/29 02:24:28;;;;;;;12.43;4.10;;;16.20;99.90;;;;;;5082321;28;20048;-80
2022/08/29 02:26:55;;;;;;;8.68;3.97;;;16.20;99.90;;;;;;5096077;27;20127;-80
2022/08/29 02:29:21;;;;;;;11.38;4.32;;;16.20;99.90;;;;;;5085648;28;20055;-80
2022/08/29 02:31:47;;;;;;;8.75;4.20;;;16.10;99.90;;;;;;5076032;28;20082;-80
2022/08/29 02:34:13;;;;;;;9.52;4.20;;;16.10;99.90;;;;;;5098863;28;20142;-80
2022/08/29 02:36:40;;;;;;;9.98;4.30;;;16.10;99.90;;;;;;5103912;28;20491;-79
2022/08/29 02:39:06;;;;;;;9.07;3.97;;;16.10;99.90;;;;;;5072322;28;20043;-80
2022/08/29 02:41:31;;;;;;;8.05;4.38;;;16.10;99.90;;;;;;5089386;28;20043;-80
2022/08/29 02:43:57;;;;;;;8.30;3.97;;;16.10;99.90;;;;;;5103062;28;20038;-80
2022/08/29 02:46:23;;;;;;;9.63;4.03;;;16.10;99.90;;;;;;5086237;28;20040;-79
2022/08/29 02:48:49;;;;;;;9.07;4.43;;;16.10;99.90;;;;;;5087851;28;20575;-80
2022/08/29 02:51:27;;;;;;;10.82;4.53;;;16.10;99.90;;;;;;5077962;28;20123;-79
2022/08/29 02:53:54;;;;;;;9.93;4.45;;;16.10;99.90;;;;;;5108645;28;20455;-80
2022/08/29 02:56:20;;;;;;;9.02;4.35;;;16.10;99.90;;;;;;5076191;28;20139;-79
2022/08/29 02:58:47;;;;;;;9.80;4.35;;;16.00;99.90;;;;;;5087795;28;20130;-80
2022/08/29 03:01:13;;;;;;;7.80;4.25;;;16.10;99.90;;;;;;5078470;28;20044;-80
2022/08/29 03:03:38;;;;;;;10.63;5.18;;;16.00;99.90;;;;;;5065855;28;20040;-79
2022/08/29 03:06:04;;;;;;;10.32;4.75;;;16.00;99.90;;;;;;5096215;28;20432;-80
2022/08/29 03:08:30;;;;;;;7.93;4.20;;;15.90;99.90;;;;;;5062650;28;20121;-80
2022/08/29 03:10:56;;;;;;;9.20;4.70;;;15.90;99.90;;;;;;5099773;28;20040;-80
2022/08/29 03:13:22;;;;;;;9.15;4.60;;;15.90;99.90;;;;;;5082986;28;20039;-79
2022/08/29 03:15:48;;;;;;;9.80;4.63;;;15.80;99.90;;;;;;5078387;28;20052;-80
2022/08/29 03:18:13;;;;;;;7.68;4.18;;;15.80;99.90;;;;;;5082605;28;20650;-80
2022/08/29 03:20:40;;;;;;;8.25;4.68;;;15.80;99.90;;;;;;5084104;28;20075;-80
2022/08/29 03:23:06;;;;;;;8.52;4.38;;;15.70;99.90;;;;;;5099660;28;20062;-80
2022/08/29 03:25:32;;;;;;;7.38;3.95;;;15.70;99.90;;;;;;5111956;28;20035;-79
2022/08/29 03:27:58;;;;;;;8.20;4.57;;;15.70;99.90;;;;;;5066948;28;20048;-80
2022/08/29 03:30:25;;;;;;;7.32;4.28;;;15.70;99.90;;;;;;5107012;28;20048;-80
2022/08/29 03:32:51;;;;;;;7.93;4.28;;;15.60;99.90;;;;;;5104327;28;20074;-80
2022/08/29 03:35:18;;;;;;;9.23;4.38;;;15.60;99.90;;;;;;5092025;28;20042;-80
2022/08/29 03:37:45;;;;;;;9.77;4.18;;;15.60;99.90;;;;;;5109472;28;20079;-79
2022/08/29 03:40:12;;;;;;;8.77;4.43;;;15.60;99.90;;;;;;5089331;28;20036;-79
2022/08/29 03:42:38;;;;;;;7.47;4.50;;;15.50;99.90;;;;;;5072801;28;20115;-79
2022/08/29 03:45:10;;;;;;;9.83;4.70;;;15.50;99.90;;;;;;5093230;28;20482;-79
2022/08/29 03:47:36;;;;;;;10.40;4.70;;;15.50;99.90;;;;;;5106769;27;20437;-79
2022/08/29 03:50:02;;;;;;;8.77;4.82;;;15.50;99.90;;;;;;5086234;28;20078;-78
2022/08/29 03:52:28;;;;;;;10.75;5.30;;;15.40;99.90;;;;;;5098963;28;20048;-79
2022/08/29 03:54:54;;;;;;;10.13;4.90;;;15.40;99.90;;;;;;5109509;28;20593;-79
2022/08/29 03:57:19;;;;;;;11.98;4.85;;;15.40;99.90;;;;;;5103123;27;20185;-79
2022/08/29 03:59:46;;;;;;;11.23;5.15;;;15.40;99.90;;;;;;5080657;28;20059;-80
2022/08/29 04:02:12;;;;;;;8.75;4.88;;;15.40;99.90;;;;;;5087255;28;20040;-80
2022/08/29 04:07:22;;;;;;;9.82;5.20;;;15.40;99.90;;;;;;5113356;28;20051;-80
2022/08/29 04:09:48;;;;;;;10.45;4.63;;;15.40;99.90;;;;;;5096812;28;20073;-80
2022/08/29 04:12:14;;;;;;;10.20;5.03;;;15.40;99.90;;;;;;5124965;28;20118;-80
2022/08/29 04:14:40;;;;;;;13.98;6.07;;;15.40;99.90;;;;;;5110543;28;20039;-80
2022/08/29 04:17:07;;;;;;;11.25;4.93;;;15.40;99.90;;;;;;5113150;28;20067;-79
2022/08/29 04:19:34;;;;;;;9.60;5.03;;;15.40;99.90;;;;;;5101925;27;20054;-80
2022/08/29 04:22:00;;;;;;;10.80;5.05;;;15.40;99.90;;;;;;5102340;28;20112;-80
2022/08/29 04:24:25;;;;;;;10.88;5.22;;;15.50;99.90;;;;;;5092096;28;20481;-79
2022/08/29 04:26:51;;;;;;;12.38;5.05;;;15.50;99.90;;;;;;5089156;28;20119;-79
2022/08/29 04:29:16;;;;;;;9.40;4.97;;;15.50;99.90;;;;;;5089649;28;20424;-79
2022/08/29 04:31:43;;;;;;;10.65;5.20;;;15.50;99.90;;;;;;5069431;28;20068;-79
2022/08/29 04:34:10;;;;;;;7.72;4.65;;;15.40;99.90;;;;;;5112912;28;20089;-79
2022/08/29 04:36:40;;;;;;;10.05;4.90;;;15.40;99.90;;;;;;5081142;28;20073;-79
2022/08/29 04:39:06;;;;;;;9.48;5.00;;;15.40;99.90;;;;;;5080889;28;20170;-80
2022/08/29 04:41:33;;;;;;;10.88;5.03;;;15.40;99.90;;;;;;5104928;28;20122;-80
2022/08/29 04:44:00;;;;;;;9.85;4.80;;;15.40;99.90;;;;;;5090323;28;20044;-80
2022/08/29 04:46:25;;;;;;;9.52;4.97;;;15.40;99.90;;;;;;5101582;28;20035;-80
2022/08/29 04:48:52;;;;;;;7.72;4.50;;;15.40;99.90;;;;;;5100833;28;20047;-80
2022/08/29 04:51:19;;;;;;;9.77;4.88;;;15.40;99.90;;;;;;5106611;28;20629;-80
2022/08/29 04:53:45;;;;;;;9.43;4.88;;;15.30;99.90;;;;;;5096882;28;20040;-80
2022/08/29 04:56:12;;;;;;;10.80;4.88;;;15.30;99.90;;;;;;5089139;28;20118;-80
2022/08/29 04:58:41;;;;;;;10.07;4.90;;;15.30;99.90;;;;;;5076236;28;20048;-80
2022/08/29 05:01:07;;;;;;;9.57;4.88;;;15.20;99.90;;;;;;5084907;28;20089;-82
2022/08/29 05:03:33;;;;;;;14.00;5.35;;;15.20;99.90;;;;;;5107298;28;20044;-79
2022/08/29 05:06:07;;;;;;;10.88;4.97;;;15.10;99.90;;;;;;5086785;28;20390;-80
2022/08/29 05:08:36;;;;;;;8.82;4.97;;;15.10;99.90;;;;;;5084209;28;20082;-79
2022/08/29 05:11:05;;;;;;;7.28;4.70;;;15.00;99.90;;;;;;5096035;28;20139;-79
2022/08/29 05:13:34;;;;;;;8.93;5.13;;;15.00;99.90;;;;;;5100270;28;20082;-79
2022/08/29 05:16:08;;;;;;;11.05;5.95;;;15.00;99.90;;;;;;5092943;28;20116;-79
2022/08/29 05:18:35;;;;;;;12.15;5.65;;;15.00;99.90;;;;;;5085097;28;20067;-79
2022/08/29 05:21:02;;;;;;;12.00;5.10;;;15.00;99.90;;;;;;5064780;28;20040;-80
2022/08/29 05:23:27;;;;;;;9.48;5.35;;;15.00;99.90;;;;;;5087787;28;20044;-78
2022/08/29 05:25:58;;;;;;;11.82;5.88;;;15.10;99.90;;;;;;5073431;28;20051;-79
2022/08/29 05:28:29;;;;;;;9.05;5.15;;;15.10;99.90;;;;;;5100296;28;20036;-75
2022/08/29 05:30:55;;;;;;;;;;;15.20;99.90;;;;;;5087572;28;20052;-76
2022/08/29 05:33:21;;;;;;;11.18;6.22;;;15.20;99.90;;;;;;5096857;28;19921;-76
2022/08/29 05:35:47;;;;;;;10.00;5.70;;;15.20;99.90;;;;;;5099478;28;20455;-76
2022/08/29 05:38:13;;;;;;;13.25;5.88;;;15.30;99.90;;;;;;5097503;28;20055;-76
2022/08/29 05:40:40;;;;;;;12.23;6.17;;;15.40;99.90;;;;;;5076207;28;20114;-76
2022/08/29 05:43:06;;;;;;;11.07;6.03;;;15.40;99.90;;;;;;5072923;28;20441;-75
2022/08/29 05:45:32;;;;;;;14.02;6.55;;;15.40;99.90;;;;;;5081624;28;20399;-76
2022/08/29 05:48:04;;;;;;;9.30;6.03;;;15.50;99.90;;;;;;5089773;28;20036;-76
2022/08/29 05:50:29;;;;;;;11.60;6.75;;;15.50;99.90;;;;;;5066432;28;20047;-76
2022/08/29 05:52:58;;;;;;;12.25;6.43;;;15.50;99.90;;;;;;5100011;28;20040;-76
2022/08/29 05:55:24;;;;;;;12.90;6.50;;;15.50;99.90;;;;;;5093428;28;20040;-76
2022/08/29 05:57:52;;;;;;;11.18;6.20;;;15.60;99.90;;;;;;5097761;28;20046;-75
2022/08/29 06:00:18;;;;;;;10.75;6.22;;;15.70;99.90;;;;;;5064689;28;20044;-76
2022/08/29 06:02:43;;;;;;;11.32;6.65;;;15.70;99.90;;;;;;5092438;28;20039;-76
2022/08/29 06:05:09;;;;;;;12.45;6.50;;;15.70;99.90;;;;;;5069368;28;20044;-76
2022/08/29 06:07:35;;;;;;;10.73;6.50;;;15.80;99.90;;;;;;5071856;28;20089;-76
2022/08/29 06:10:07;;;;;;;11.82;6.20;;;15.80;99.90;;;;;;5097102;28;20059;-76
2022/08/29 06:12:33;;;;;;;13.00;7.30;;;15.90;99.90;;;;;;5070623;28;20048;-76
2022/08/29 06:14:59;;;;;;;15.18;6.78;;;15.90;99.90;;;;;;5077608;28;20442;-76
2022/08/29 06:17:26;;;;;;;12.60;5.85;;;16.00;99.90;;;;;;5091644;28;20047;-76
2022/08/29 06:19:52;;;;;;;11.55;5.88;;;16.10;99.90;;;;;;5088035;28;20047;-76
2022/08/29 06:22:18;;;;;;;11.35;6.18;;;16.10;99.90;;;;;;5088903;28;20105;-77
2022/08/29 06:24:45;;;;;;;12.00;6.35;;;16.20;99.90;;;;;;5084033;28;20474;-78
2022/08/29 06:27:12;;;;;;;13.02;6.03;;;16.20;99.90;;;;;;5065397;28;20083;-79
2022/08/29 06:29:38;;;;;;;11.10;5.72;;;16.30;99.90;;;;;;5082143;28;20162;-81
2022/08/29 06:32:04;;;;;;;9.68;5.90;;;16.30;99.90;;;;;;5075783;28;20509;-78
2022/08/29 06:34:30;;;;;;;12.57;5.72;;;16.40;99.90;;;;;;5059141;28;20131;-82
2022/08/29 06:36:55;;;;;;;11.02;5.78;;;16.50;99.90;;;;;;5059931;28;20109;-79
2022/08/29 06:39:21;;;;;;;10.75;5.95;;;16.50;99.90;;;;;;5086714;28;20048;-80
2022/08/29 06:41:47;;;;;;;15.60;5.60;;;16.60;99.90;;;;;;5086279;28;20047;-81
2022/08/29 06:44:14;;;;;;;9.48;5.55;;;16.60;99.90;;;;;;5089174;28;20044;-81
2022/08/29 06:46:42;;;;;;;11.47;6.10;;;16.70;99.90;;;;;;5072328;28;20048;-80
2022/08/29 06:49:13;;;;;;;13.20;5.93;;;16.70;99.90;;;;;;5072386;28;20048;-80
2022/08/29 06:51:43;;;;;;;14.00;5.85;;;16.80;99.90;;;;;;5075545;28;20036;-82
2022/08/29 06:54:11;;;;;;;11.95;5.65;;;16.80;99.90;;;;;;5069977;28;20046;-81
2022/08/29 06:56:38;;;;;;;14.10;5.95;;;16.80;99.90;;;;;;5071039;28;20410;-81
2022/08/29 06:59:05;;;;;;;12.02;5.88;;;16.90;99.90;;;;;;5064339;28;20055;-83
2022/08/29 07:01:30;;;;;;;9.63;6.18;;;16.90;99.90;;;;;;5091931;28;20267;-84
2022/08/29 07:03:57;;;;;;;12.50;6.03;;;16.90;99.90;;;;;;5092429;28;20101;-83
2022/08/29 07:06:23;;;;;;;12.82;6.25;;;16.90;99.90;;;;;;5073460;28;20048;-81
2022/08/29 07:08:49;;;;;;;12.98;6.50;;;16.90;99.90;;;;;;5075937;28;20047;-82
2022/08/29 07:11:15;;;;;;;11.95;5.88;;;17.00;99.90;;;;;;5088706;28;20084;-81
2022/08/29 07:13:41;;;;;;;12.20;6.15;;;17.00;99.90;;;;;;5071046;28;20138;-83
2022/08/29 07:16:13;;;;;;;11.15;5.90;;;17.00;99.90;;;;;;5093281;28;20055;-82
2022/08/29 07:18:39;;;;;;;11.77;5.93;;;17.00;99.90;;;;;;5073813;28;20395;-82
2022/08/29 07:21:10;;;;;;;11.95;5.70;;;17.10;99.90;;;;;;5078652;28;20465;-81
2022/08/29 07:23:36;;;;;;;11.73;5.72;;;17.10;99.90;;;;;;5070659;28;20487;-82
2022/08/29 07:26:29;;;;;;;10.82;5.72;;;17.20;99.90;;;;;;5090144;28;20042;-82
2022/08/29 07:28:58;;;;;;;11.35;5.40;;;17.20;99.90;;;;;;5052305;28;20503;-82
2022/08/29 07:31:24;;;;;;;9.60;4.47;;;17.30;99.90;;;;;;5071157;28;20054;-81
2022/08/29 07:33:50;;;;;;;13.32;5.57;;;17.30;99.90;;;;;;5091562;28;20121;-81
2022/08/29 07:36:15;;;;;;;12.75;5.25;;;17.40;99.90;;;;;;5072623;28;20077;-83
2022/08/29 07:38:41;;;;;;;10.75;5.47;;;17.40;99.90;;;;;;5073705;28;20037;-80
2022/08/29 07:41:09;;;;;;;12.60;5.80;;;17.40;99.90;;;;;;5071841;28;20052;-82
2022/08/29 07:43:35;;;;;;;10.38;5.47;;;17.50;99.90;;;;;;5097587;28;20486;-80
2022/08/29 07:46:15;;;;;;;13.98;6.10;;;17.40;99.90;;;;;;5080541;28;20044;-81
2022/08/29 07:48:41;;;;;;;15.85;5.82;;;17.40;99.90;;;;;;5091652;28;20037;-84
2022/08/29 07:51:08;;;;;;;13.65;5.80;;;17.50;99.90;;;;;;5089342;28;20644;-85
2022/08/29 07:53:34;;;;;;;;;;;17.60;99.90;;;;;;5070190;28;20052;-84
2022/08/29 07:56:08;;;;;;;13.48;6.00;;;17.60;99.90;;;;;;5072997;28;19922;-85
2022/08/29 07:58:35;;;;;;;11.75;5.70;;;17.60;99.90;;;;;;5103546;28;20055;-86
2022/08/29 08:01:02;;;;;;;12.80;5.85;;;17.60;99.90;;;;;;5094638;28;20048;-85
2022/08/29 08:03:29;;;;;;;13.35;6.53;;;17.70;99.90;;;;;;5078513;28;20507;-86
2022/08/29 08:05:54;;;;;;;12.82;5.70;;;17.70;99.90;;;;;;5091611;28;20486;-83
2022/08/29 08:08:20;;;;;;;11.23;6.15;;;17.80;99.90;;;;;;5084969;28;20044;-83
2022/08/29 08:10:46;;;;;;;15.85;6.78;;;17.80;99.90;;;;;;5093272;28;20476;-83
2022/08/29 08:13:13;;;;;;;11.32;6.13;;;17.90;99.90;;;;;;5092592;28;20044;-80
2022/08/29 08:15:39;;;;;;;10.77;5.45;;;18.00;99.90;;;;;;5086183;28;20052;-81
2022/08/29 08:18:05;;;;;;;10.23;5.25;;;18.10;99.90;;;;;;5084717;28;20053;-83
2022/08/29 08:20:30;;;;;;;11.95;5.47;;;18.10;99.90;;;;;;5094626;28;20043;-84
2022/08/29 08:22:57;;;;;;;12.18;5.63;;;18.20;99.90;;;;;;5072759;28;20544;-80
2022/08/29 08:25:23;;;;;;;11.83;5.53;;;18.30;99.90;;;;;;5085451;28;20439;-80
2022/08/29 08:27:49;;;;;;;8.77;4.55;;;18.40;99.90;;;;;;5087874;28;20304;-82
2022/08/29 08:30:15;;;;;;;11.82;4.20;;;18.50;99.90;;;;;;5072490;28;20434;-84
2022/08/29 08:32:41;;;;;;;12.30;5.15;;;18.60;99.90;;;;;;5077822;28;20044;-84
2022/08/29 08:35:07;;;;;;;11.25;4.60;;;18.70;99.90;;;;;;5092356;28;20069;-81
2022/08/29 08:37:32;;;;;;;16.10;4.60;;;18.70;99.90;;;;;;5092206;28;20040;-82
2022/08/29 08:39:58;;;;;;;10.55;4.65;;;18.80;99.90;;;;;;5091137;28;20479;-82
2022/08/29 08:42:34;;;;;;;10.18;4.32;;;18.90;99.90;;;;;;5090042;28;20044;-85
2022/08/29 08:45:10;;;;;;;8.73;3.63;;;18.90;99.90;;;;;;5082852;28;20044;-84
2022/08/29 08:47:52;;;;;;;14.07;3.72;;;19.00;99.90;;;;;;5073319;28;20055;-84
2022/08/29 08:50:49;;;;;;;9.52;4.05;;;19.10;99.90;;;;;;5072965;28;20056;-84
2022/08/29 08:53:22;;;;;;;11.63;4.07;;;19.20;99.90;;;;;;5088338;28;20044;-83
2022/08/29 08:55:53;;;;;;;13.80;4.20;;;19.30;99.90;;;;;;5089198;28;20115;-85
2022/08/29 08:58:24;;;;;;;14.82;4.45;;;19.30;99.90;;;;;;5072854;28;20067;-85
2022/08/29 09:01:15;;;;;;;12.07;4.20;;;19.40;99.90;;;;;;5100983;28;20038;-81
2022/08/29 09:03:55;;;;;;;12.27;4.20;;;19.50;99.90;;;;;;5097249;28;20035;-82
2022/08/29 09:06:39;;;;;;;12.48;4.18;;;19.70;99.90;;;;;;5114811;28;20051;-83
2022/08/29 09:09:23;;;;;;;10.40;3.67;;;19.80;99.90;;;;;;5083247;28;20044;-84
2022/08/29 09:11:53;;;;;;;10.75;4.35;;;20.00;99.90;;;;;;5081543;28;20072;-81
2022/08/29 09:14:53;;;;;;;12.43;3.83;;;20.20;99.90;;;;;;5077447;28;20491;-83
2022/08/29 09:17:24;;;;;;;9.90;4.50;;;20.40;99.90;;;;;;5076531;28;20055;-84
2022/08/29 09:19:50;;;;;;;12.95;4.22;;;20.50;99.90;;;;;;5091029;28;20402;-83
2022/08/29 09:22:26;;;;;;;10.30;3.72;;;20.60;99.90;;;;;;5090204;28;20055;-85
2022/08/29 09:25:05;;;;;;;10.50;3.70;;;20.60;99.90;;;;;;5072797;28;20044;-86
2022/08/29 09:27:33;;;;;;;14.25;3.78;;;20.60;99.90;;;;;;5072276;28;20546;-84
2022/08/29 09:30:13;;;;;;;10.50;4.30;;;20.50;99.90;;;;;;5086397;28;20044;-85
2022/08/29 09:33:07;;;;;;;10.27;4.05;;;20.50;99.90;;;;;;5088905;28;20055;-83
2022/08/29 09:35:39;;;;;;;12.60;4.45;;;20.40;99.90;;;;;;5090191;28;20054;-80
2022/08/29 09:38:08;;;;;;;12.23;4.20;;;20.40;99.90;;;;;;5069457;28;20063;-85
2022/08/29 09:41:09;;;;;;;11.23;3.83;;;20.40;99.90;;;;;;5090117;28;20036;-83
2022/08/29 09:43:37;;;;;;;12.50;3.90;;;20.40;99.90;;;;;;5073724;28;20044;-84
2022/08/29 09:46:06;;;;;;;9.82;4.10;;;20.40;99.90;;;;;;5072457;28;20093;-81
2022/08/29 09:48:32;;;;;;;12.45;4.07;;;20.40;99.90;;;;;;5071733;28;20112;-85
2022/08/29 09:51:14;;;;;;;7.43;4.00;;;20.40;99.90;;;;;;5071452;28;20510;-83
2022/08/29 09:53:40;;;;;;;10.70;3.83;;;20.40;99.90;;;;;;5078399;28;20051;-85
2022/08/29 09:56:14;;;;;;;9.23;3.80;;;20.40;99.90;;;;;;5074222;28;20043;-81
2022/08/29 09:58:41;;;;;;;11.27;3.90;;;20.30;99.90;;;;;;5070088;28;20401;-82
2022/08/29 10:01:20;;;;;;;11.35;3.88;;;20.40;99.90;;;;;;5091071;28;20036;-83
2022/08/29 10:04:01;;;;;;;10.90;3.92;;;20.40;99.90;;;;;;5069288;28;20048;-83
2022/08/29 10:06:31;;;;;;;8.98;4.35;;;20.40;99.90;;;;;;5066258;28;20039;-80
2022/08/29 10:09:23;;;;;;;9.93;4.05;;;20.40;99.90;;;;;;5087882;28;20510;-84
2022/08/29 10:11:59;;;;;;;10.70;4.22;;;20.50;99.90;;;;;;5068734;28;20101;-84
2022/08/29 10:14:41;;;;;;;9.55;4.07;;;20.40;99.90;;;;;;5074765;28;20407;-84
2022/08/29 10:20:00;;;;;;;10.00;3.65;;;20.60;99.90;;;;;;5087133;28;20048;-82
2022/08/29 10:22:45;;;;;;;10.02;3.55;;;20.60;99.90;;;;;;5086501;28;20043;-84
2022/08/29 10:25:19;;;;;;;8.35;3.90;;;20.60;99.90;;;;;;5068859;28;20057;-80
2022/08/29 10:28:09;;;;;;;9.45;3.92;;;20.60;99.90;;;;;;5086787;28;20453;-79
2022/08/29 10:30:56;;;;;;;13.35;4.40;;;20.60;99.90;;;;;;5088378;28;20107;-80
2022/08/29 10:33:46;;;;;;;11.02;3.97;;;20.70;99.90;;;;;;5090998;28;20044;-79
2022/08/29 10:36:24;;;;;;;12.02;4.30;;;20.70;99.90;;;;;;5067609;28;20085;-84
2022/08/29 10:39:09;;;;;;;15.60;3.92;;;20.80;99.90;;;;;;5064616;28;20744;-84
2022/08/29 10:41:44;;;;;;;12.18;3.90;;;20.90;99.90;;;;;;5062800;28;20134;-84
2022/08/29 10:44:28;;;;;;;10.82;3.75;;;21.00;99.90;;;;;;5067417;28;20097;-80
2022/08/29 10:47:17;;;;;;;13.93;4.07;;;21.10;99.90;;;;;;5068121;28;20109;-78
2022/08/29 10:49:52;;;;;;;12.23;3.95;;;21.20;99.90;;;;;;5090819;28;20052;-80
2022/08/29 10:52:21;;;;;;;7.40;3.42;;;21.20;99.90;;;;;;5066882;28;20191;-80
2022/08/29 10:54:53;;;;;;;13.65;4.30;;;21.40;99.90;;;;;;5087803;28;20044;-81
2022/08/29 10:57:46;;;;;;;10.70;3.88;;;21.50;99.90;;;;;;5063325;28;20036;-77
2022/08/29 11:00:17;;;;;;;8.40;3.53;;;21.70;99.90;;;;;;5081062;28;20036;-77
2022/08/29 11:03:12;;;;;;;8.68;3.80;;;21.90;99.90;;;;;;5066082;28;20395;-82
2022/08/29 11:05:47;;;;;;;10.45;3.60;;;22.00;99.90;;;;;;5086394;28;20501;-84
2022/08/29 11:08:16;;;;;;;10.63;3.75;;;22.00;99.90;;;;;;5070446;28;20248;-82
2022/08/29 11:10:48;;;;;;;13.73;3.90;;;22.00;99.90;;;;;;5086836;28;20051;-86
2022/08/29 11:13:17;;;;;;;11.18;3.80;;;22.10;99.90;;;;;;5083540;28;20040;-79
2022/08/29 11:15:55;;;;;;;10.23;4.10;;;22.10;99.90;;;;;;5065367;28;20055;-79
2022/08/29 11:18:27;;;;;;;11.13;3.58;;;22.10;99.90;;;;;;5101749;28;20375;-83
2022/08/29 11:20:59;;;;;;;10.25;3.58;;;22.10;99.90;;;;;;5087206;28;20051;-81
2022/08/29 11:23:27;;;;;;;10.60;3.97;;;22.10;99.90;;;;;;5084607;28;20048;-79
2022/08/29 11:25:57;;;;;;;10.82;3.70;;;22.10;99.90;;;;;;5088336;28;20054;-80
2022/08/29 11:28:36;;;;;;;8.88;3.92;;;22.20;99.90;;;;;;5108743;28;20080;-80
2022/08/29 11:31:11;;;;;;;14.43;4.30;;;22.20;99.90;;;;;;5106400;28;20458;-79
2022/08/29 11:33:36;;;;;;;12.48;3.90;;;22.20;99.90;;;;;;5107762;28;20523;-80
2022/08/29 11:36:14;;;;;;;13.40;4.03;;;22.20;99.90;;;;;;5088465;28;20058;-77
2022/08/29 11:39:11;;;;;;;10.95;3.97;;;22.30;99.90;;;;;;5106086;28;20046;-79
2022/08/29 11:41:43;;;;;;;9.35;3.58;;;22.40;99.90;;;;;;5102466;28;20048;-79
2022/08/29 11:44:32;;;;;;;11.93;3.70;;;22.50;99.90;;;;;;5110307;28;20054;-78
2022/08/29 11:46:58;;;;;;;10.88;3.80;;;22.50;99.90;;;;;;5079112;28;20060;-79
2022/08/29 11:49:30;;;;;;;10.13;3.95;;;22.50;99.90;;;;;;5110247;28;20047;-79
2022/08/29 11:52:20;;;;;;;11.35;4.00;;;22.60;99.90;;;;;;5078179;28;20089;-78
2022/08/29 11:54:53;;;;;;;10.88;3.92;;;22.70;99.90;;;;;;5082525;28;20047;-74
2022/08/29 11:57:18;;;;;;;11.88;3.70;;;22.70;99.90;;;;;;5104599;28;20063;-82
2022/08/29 11:59:50;;;;;;;10.15;3.53;;;22.70;99.90;;;;;;5091205;28;20120;-75
2022/08/29 12:02:27;;;;;;;7.88;3.58;;;22.70;99.90;;;;;;5100007;28;20047;-78
2022/08/29 12:05:25;;;;;;;11.18;4.03;;;22.80;99.90;;;;;;5088998;28;20056;-79
2022/08/29 12:08:09;;;;;;;11.90;4.45;;;22.80;99.90;;;;;;5112909;28;20119;-79
2022/08/29 12:10:52;;;;;;;10.05;3.95;;;22.90;99.90;;;;;;5092758;28;20061;-80
2022/08/29 12:13:43;;;;;;;9.73;3.60;;;23.10;99.90;;;;;;5093878;28;20088;-80
2022/08/29 12:16:10;;;;;;;12.30;4.30;;;23.30;99.90;;;;;;5087881;28;20134;-80
2022/08/29 12:18:51;;;;;;;12.50;3.90;;;23.30;99.90;;;;;;5092054;28;20100;-80
2022/08/29 12:21:43;;;;;;;9.85;4.05;;;23.30;99.90;;;;;;5090427;28;20097;-80
2022/08/29 12:24:32;;;;;;;9.02;3.47;;;23.50;99.90;;;;;;5087399;28;20092;-80
2022/08/29 12:26:58;;;;;;;7.85;4.05;;;23.40;99.90;;;;;;5091199;28;20044;-80
2022/08/29 12:29:33;;;;;;;12.52;3.85;;;23.40;99.90;;;;;;5101045;28;20344;-81
2022/08/29 12:32:32;;;;;;;12.35;4.30;;;23.40;99.90;;;;;;5107584;28;20069;-81
2022/08/29 12:35:15;;;;;;;8.98;3.78;;;23.30;99.90;;;;;;5090734;28;20082;-81
2022/08/29 12:37:51;;;;;;;8.95;3.90;;;23.20;99.90;;;;;;5091991;28;20425;-79
2022/08/29 12:40:36;;;;;;;10.93;4.03;;;23.20;99.90;;;;;;5084764;28;20067;-80
2022/08/29 12:43:19;;;;;;;10.52;4.32;;;23.10;99.90;;;;;;5083441;28;20048;-78
2022/08/29 12:45:46;;;;;;;16.40;4.10;;;23.00;99.90;;;;;;5084526;28;20070;-76
2022/08/29 12:48:19;;;;;;;;;;;22.90;99.90;;;;;;5089069;28;20056;-78
2022/08/29 12:50:47;;;;;;;10.35;3.33;;;23.00;99.90;;;;;;5090075;28;19927;-77
2022/08/29 12:53:23;;;;;;;11.95;4.07;;;23.10;99.90;;;;;;5087650;28;20047;-79
2022/08/29 12:56:13;;;;;;;12.85;4.40;;;23.10;99.90;;;;;;5103560;27;20043;-81
2022/08/29 12:58:43;;;;;;;14.23;3.75;;;23.20;99.90;;;;;;5067962;28;20056;-77
2022/08/29 13:01:39;;;;;;;9.90;3.97;;;23.10;99.90;;;;;;5107211;28;20051;-77
2022/08/29 13:04:16;;;;;;;10.45;3.75;;;23.10;99.90;;;;;;5067802;28;20462;-74
2022/08/29 13:07:01;;;;;;;11.77;3.70;;;23.10;99.90;;;;;;5085983;28;20052;-78